Terminal Aerodrome Forecast
Issued by NWS

Home | Current Version | Previous Version | Text Only | Print | Product List | Glossary On
Versions: 1 2 3 4 5 6 7 8 9 10 11 12 13 14 15 16 17 18 19 20 21 22 23 24 25 26 27 28 29 30 31 32
000
FTUS45 KCYS 300600 AAA
TAFAIA
TAF AMD
KAIA 300607Z 3006/0106 03015G25KT 5SM RA BR BKN020 OVC040
     FM301000 25020G30KT 5SM -RA BKN007 OVC015
     FM301500 27028G38KT P6SM BKN025 OVC050
     FM302200 28015G22KT P6SM SCT050 BKN100=

USA.gov is the U.S. government's official web portal to all federal, state and local government web resources and services.